Time;durP1;ratioP1;P1;durP2;ratioP2;P2;SDS_P1;SDS_P2;PMS_P1;PMS_P2;Temp;Humidity;BMP_temperature;BMP_pressure;BME280_temperature;BME280_humidity;BME280_pressure;Samples;Min_cycle;Max_cycle;Signal;HPM_P1;HPM_P2
2022/05/12 00:00:35;;;;;;;8.55;2.58;;;18.20;99.90;;;;;;4972441;28;20027;-78
2022/05/12 00:03:01;;;;;;;7.22;3.10;;;18.20;99.90;;;;;;4972529;28;20034;-78
2022/05/12 00:05:27;;;;;;;6.68;2.80;;;18.20;99.90;;;;;;4972508;28;20031;-78
2022/05/12 00:07:52;;;;;;;11.07;3.00;;;18.20;99.90;;;;;;4971197;28;20093;-79
2022/05/12 00:10:23;;;;;;;9.65;2.97;;;18.10;99.90;;;;;;4972198;28;20035;-78
2022/05/12 00:15:40;;;;;;;5.70;2.63;;;18.10;99.90;;;;;;4932309;29;20627;-83
2022/05/12 00:18:08;;;;;;;6.38;2.50;;;18.00;99.90;;;;;;4934041;29;20107;-83
2022/05/12 00:20:38;;;;;;;7.20;2.60;;;18.00;99.90;;;;;;4933612;29;20046;-83
2022/05/12 00:23:20;;;;;;;6.65;3.00;;;18.00;99.90;;;;;;4933851;29;20039;-84
2022/05/12 00:25:48;;;;;;;9.27;2.60;;;18.00;99.90;;;;;;4932443;29;20031;-83
2022/05/12 00:28:18;;;;;;;6.20;2.47;;;18.00;99.90;;;;;;4932608;29;20163;-83
2022/05/12 00:30:46;;;;;;;8.65;2.83;;;18.00;99.90;;;;;;4933496;29;20567;-83
2022/05/12 00:33:13;;;;;;;7.07;2.25;;;17.90;99.90;;;;;;4933807;29;20024;-83
2022/05/12 00:35:41;;;;;;;6.45;2.55;;;17.80;99.90;;;;;;4933623;29;20028;-84
2022/05/12 00:38:06;;;;;;;8.18;3.60;;;17.70;99.90;;;;;;4933699;29;20064;-83
2022/05/12 00:40:32;;;;;;;8.38;3.50;;;17.70;99.90;;;;;;4933455;29;20707;-84
2022/05/12 00:43:04;;;;;;;9.30;4.25;;;17.70;99.90;;;;;;4916769;29;20039;-84
2022/05/12 00:45:35;;;;;;;9.80;3.35;;;17.70;99.90;;;;;;4933625;29;20042;-83
2022/05/12 00:48:03;;;;;;;8.57;3.35;;;17.60;99.90;;;;;;4932612;29;20042;-83
2022/05/12 00:50:42;;;;;;;6.13;2.67;;;17.60;99.90;;;;;;4916281;29;20028;-83
2022/05/12 00:53:11;;;;;;;6.22;2.70;;;17.50;99.90;;;;;;4936251;29;20199;-84
2022/05/12 00:55:42;;;;;;;5.55;2.90;;;17.50;99.90;;;;;;4936067;29;20035;-83
2022/05/12 00:58:10;;;;;;;9.38;2.80;;;17.40;99.90;;;;;;4937571;29;20059;-83
2022/05/12 01:00:37;;;;;;;10.60;3.03;;;17.30;99.90;;;;;;4937154;29;20391;-83
2022/05/12 01:03:07;;;;;;;8.38;2.70;;;17.30;99.90;;;;;;4937407;29;20042;-83
2022/05/12 01:05:33;;;;;;;4.97;2.13;;;17.20;99.90;;;;;;4937493;29;20038;-83
2022/05/12 01:07:59;;;;;;;6.90;2.10;;;17.20;99.90;;;;;;4937471;29;20461;-83
2022/05/12 01:10:27;;;;;;;5.85;2.30;;;17.10;99.80;;;;;;4936917;29;20047;-83
2022/05/12 01:12:53;;;;;;;5.53;1.95;;;17.00;99.90;;;;;;4935891;29;20548;-84
2022/05/12 01:15:21;;;;;;;6.25;2.28;;;16.90;99.90;;;;;;4937138;29;20410;-83
2022/05/12 01:17:47;;;;;;;7.88;2.63;;;16.90;99.90;;;;;;4936911;29;20036;-83
2022/05/12 01:20:14;;;;;;;4.75;2.10;;;16.80;99.90;;;;;;4936793;29;20445;-83
2022/05/12 01:22:54;;;;;;;7.55;2.17;;;16.80;99.90;;;;;;4935771;29;20034;-83
2022/05/12 01:25:24;;;;;;;5.43;2.40;;;16.80;99.90;;;;;;4936999;29;20027;-84
2022/05/12 01:27:50;;;;;;;5.10;2.47;;;16.80;99.90;;;;;;4936753;29;20046;-83
2022/05/12 01:30:19;;;;;;;8.93;2.60;;;16.80;99.90;;;;;;4936553;29;20031;-83
2022/05/12 01:32:46;;;;;;;5.22;2.10;;;16.70;99.90;;;;;;4935682;29;20114;-83
2022/05/12 01:35:14;;;;;;;7.72;2.30;;;16.70;99.90;;;;;;4936726;29;20517;-83
2022/05/12 01:37:43;;;;;;;7.95;2.03;;;16.70;99.50;;;;;;4936771;29;20031;-83
2022/05/12 01:40:12;;;;;;;5.50;2.10;;;16.70;99.50;;;;;;4936496;29;20099;-83
2022/05/12 01:42:38;;;;;;;5.43;2.30;;;16.70;99.50;;;;;;4935517;29;20036;-83
2022/05/12 01:45:06;;;;;;;5.72;2.20;;;16.70;99.80;;;;;;4936414;29;20032;-83
2022/05/12 01:47:33;;;;;;;12.87;3.10;;;16.60;99.80;;;;;;4935393;29;20070;-83
2022/05/12 01:49:59;;;;;;;6.88;2.85;;;16.60;99.70;;;;;;4935077;29;20786;-83
2022/05/12 01:52:24;;;;;;;5.90;2.28;;;16.60;99.80;;;;;;4935253;29;20088;-83
2022/05/12 01:54:50;;;;;;;8.25;2.25;;;16.60;99.90;;;;;;4936314;29;20118;-83
2022/05/12 01:57:16;;;;;;;6.75;2.30;;;16.50;99.90;;;;;;4935071;29;20047;-83
2022/05/12 01:59:42;;;;;;;6.22;2.17;;;16.50;99.80;;;;;;4936122;29;20032;-83
2022/05/12 02:02:08;;;;;;;9.55;2.55;;;16.50;99.80;;;;;;4936606;29;20032;-83
2022/05/12 02:04:34;;;;;;;7.40;2.17;;;16.50;99.90;;;;;;4934788;29;20028;-83
2022/05/12 02:07:00;;;;;;;6.55;2.47;;;16.50;99.40;;;;;;4936027;29;20119;-84
2022/05/12 02:09:25;;;;;;;5.35;2.00;;;16.50;99.00;;;;;;4935982;29;20032;-83
2022/05/12 02:11:51;;;;;;;6.65;2.40;;;16.50;99.20;;;;;;4935999;29;20036;-83
2022/05/12 02:14:17;;;;;;;6.72;2.30;;;16.50;99.30;;;;;;4935944;29;20067;-83
2022/05/12 02:16:43;;;;;;;6.43;2.00;;;16.40;99.50;;;;;;4934582;29;20518;-83
2022/05/12 02:19:11;;;;;;;4.97;2.05;;;16.40;99.80;;;;;;4935965;29;20487;-84
2022/05/12 02:21:37;;;;;;;9.07;2.53;;;16.30;99.90;;;;;;4934937;29;20043;-84
2022/05/12 02:24:04;;;;;;;8.40;2.40;;;16.30;99.70;;;;;;4934645;29;20062;-84
2022/05/12 02:26:30;;;;;;;6.93;2.58;;;16.30;99.40;;;;;;4934789;29;20031;-83
2022/05/12 02:28:56;;;;;;;7.75;2.03;;;16.30;99.20;;;;;;4935993;29;20387;-83
2022/05/12 02:31:22;;;;;;;8.50;2.50;;;16.20;99.10;;;;;;4935667;29;20127;-84
2022/05/12 02:33:48;;;;;;;7.03;2.60;;;16.20;99.30;;;;;;4934347;29;20123;-84
2022/05/12 02:36:14;;;;;;;9.73;2.50;;;16.30;99.30;;;;;;4934243;29;20063;-83
2022/05/12 02:38:40;;;;;;;10.40;3.40;;;16.20;99.60;;;;;;4935573;29;20024;-83
2022/05/12 02:41:07;;;;;;;9.48;3.50;;;16.20;99.90;;;;;;4918465;29;20492;-83
2022/05/12 02:43:32;;;;;;;7.00;3.42;;;16.20;99.90;;;;;;4934555;29;20127;-83
2022/05/12 02:46:08;;;;;;;8.23;2.92;;;16.20;99.90;;;;;;4935264;29;20543;-83
2022/05/12 02:48:40;;;;;;;9.43;2.55;;;16.10;99.90;;;;;;4935176;29;20032;-83
2022/05/12 02:51:06;;;;;;;9.65;2.90;;;16.10;99.90;;;;;;4918302;29;20036;-83
2022/05/12 02:53:32;;;;;;;9.75;2.75;;;16.00;99.90;;;;;;4935248;29;20086;-83
2022/05/12 02:55:59;;;;;;;8.40;2.97;;;16.00;99.90;;;;;;4935118;29;20031;-84
2022/05/12 02:58:26;;;;;;;6.28;2.25;;;16.00;99.90;;;;;;4934071;29;20424;-84
2022/05/12 03:00:52;;;;;;;11.07;2.60;;;16.00;99.70;;;;;;4935054;29;20118;-84
2022/05/12 03:03:18;;;;;;;8.43;2.65;;;16.00;99.60;;;;;;4935239;29;20521;-84
2022/05/12 03:05:44;;;;;;;8.70;2.45;;;16.00;99.70;;;;;;4934972;29;20040;-84
2022/05/12 03:08:10;;;;;;;7.25;2.88;;;16.00;99.80;;;;;;4934980;29;20083;-83
2022/05/12 03:10:37;;;;;;;9.60;2.65;;;16.00;99.90;;;;;;4917726;29;20090;-83
2022/05/12 03:13:04;;;;;;;9.82;2.60;;;16.00;99.90;;;;;;4934756;29;20030;-84
2022/05/12 03:15:30;;;;;;;7.25;3.05;;;16.00;99.90;;;;;;4933137;29;20391;-84
2022/05/12 03:17:56;;;;;;;10.48;3.08;;;15.90;99.90;;;;;;4934853;29;20119;-84
2022/05/12 03:20:24;;;;;;;8.60;2.90;;;15.90;99.60;;;;;;4934684;29;20075;-83
2022/05/12 03:22:50;;;;;;;7.65;2.85;;;16.00;99.70;;;;;;4933400;29;20118;-83
2022/05/12 03:25:17;;;;;;;8.70;2.75;;;15.80;99.90;;;;;;4934700;29;20130;-84
2022/05/12 03:27:44;;;;;;;8.68;2.75;;;15.90;99.90;;;;;;4933305;29;20461;-84
2022/05/12 03:30:13;;;;;;;8.68;2.75;;;15.90;99.90;;;;;;4934329;29;20028;-84
2022/05/12 03:32:40;;;;;;;7.53;2.40;;;15.90;99.90;;;;;;4934695;29;20452;-84
2022/05/12 03:35:07;;;;;;;6.60;2.45;;;15.80;99.90;;;;;;4934600;29;20031;-84
2022/05/12 03:37:33;;;;;;;7.07;2.88;;;15.80;99.90;;;;;;4933054;29;20032;-83
2022/05/12 03:40:00;;;;;;;6.47;2.70;;;15.80;99.90;;;;;;4933360;29;20500;-83
2022/05/12 03:42:25;;;;;;;8.60;3.47;;;15.80;99.90;;;;;;4934572;29;20392;-84
2022/05/12 03:44:53;;;;;;;9.45;2.72;;;15.70;99.90;;;;;;4934382;29;20032;-84
2022/05/12 03:47:21;;;;;;;8.17;3.20;;;15.60;99.90;;;;;;4934364;29;20114;-84
2022/05/12 03:49:52;;;;;;;7.20;2.50;;;15.60;99.90;;;;;;4934144;29;20036;-83
2022/05/12 03:52:19;;;;;;;8.60;3.10;;;15.70;99.90;;;;;;4933239;29;20428;-83
2022/05/12 03:54:45;;;;;;;8.95;2.72;;;15.80;99.90;;;;;;4934388;29;20388;-83
2022/05/12 03:57:12;;;;;;;6.95;2.50;;;15.60;99.90;;;;;;4934056;29;20070;-84
2022/05/12 03:59:39;;;;;;;7.88;2.70;;;15.70;99.90;;;;;;4932757;29;20024;-83
2022/05/12 04:02:06;;;;;;;8.35;2.67;;;15.70;99.90;;;;;;4932952;29;20059;-83
2022/05/12 04:04:33;;;;;;;7.72;2.65;;;15.60;99.90;;;;;;4933923;29;20064;-83
2022/05/12 04:06:59;;;;;;;5.80;2.80;;;15.60;99.90;;;;;;4916789;29;20039;-83
2022/05/12 04:09:26;;;;;;;7.38;2.67;;;15.60;99.90;;;;;;4933998;29;20404;-84
2022/05/12 04:11:52;;;;;;;7.88;3.22;;;15.50;99.90;;;;;;4934020;29;20032;-84
2022/05/12 04:14:18;;;;;;;10.40;3.55;;;15.50;99.90;;;;;;4932770;29;20062;-84
2022/05/12 04:16:44;;;;;;;8.60;3.17;;;15.40;99.90;;;;;;4933849;29;20601;-83
2022/05/12 04:19:12;;;;;;;7.25;2.90;;;15.30;99.90;;;;;;4934189;29;20110;-84
2022/05/12 04:21:38;;;;;;;8.00;3.20;;;15.30;99.90;;;;;;4933988;29;20099;-83
2022/05/12 04:24:05;;;;;;;8.07;3.22;;;15.30;99.90;;;;;;4933952;29;20031;-83
2022/05/12 04:26:32;;;;;;;11.27;3.83;;;15.40;99.90;;;;;;4932332;29;20039;-84
2022/05/12 04:28:58;;;;;;;6.88;3.22;;;15.40;99.90;;;;;;4933657;29;20043;-83
2022/05/12 04:31:24;;;;;;;10.63;3.28;;;15.50;99.90;;;;;;4932329;29;20045;-83
2022/05/12 04:36:36;;;;;;;8.90;3.50;;;15.40;99.90;;;;;;4933929;29;20113;-84
2022/05/12 04:39:03;;;;;;;8.50;4.10;;;15.50;99.90;;;;;;4933565;29;20024;-83
2022/05/12 04:41:29;;;;;;;8.00;3.20;;;15.50;99.90;;;;;;4933653;29;20040;-84
2022/05/12 04:43:55;;;;;;;8.75;3.30;;;15.50;99.90;;;;;;4932294;29;20397;-83
2022/05/12 04:46:21;;;;;;;6.95;3.35;;;15.50;99.90;;;;;;4932151;29;20074;-84
2022/05/12 04:48:47;;;;;;;8.25;3.38;;;15.50;99.90;;;;;;4933621;29;20035;-84
2022/05/12 04:51:12;;;;;;;9.48;3.40;;;15.50;99.90;;;;;;4933573;29;20036;-84
2022/05/12 04:53:38;;;;;;;8.55;3.63;;;15.40;99.90;;;;;;4932190;29;20055;-83
2022/05/12 04:56:04;;;;;;;7.35;3.55;;;15.50;99.90;;;;;;4933291;29;20023;-83
2022/05/12 04:58:30;;;;;;;13.88;4.22;;;15.50;99.90;;;;;;4932087;29;20429;-83
2022/05/12 05:00:56;;;;;;;8.68;4.03;;;15.50;99.90;;;;;;4933372;29;20038;-83
2022/05/12 05:03:22;;;;;;;7.32;3.88;;;15.50;99.90;;;;;;4933358;29;20182;-83
2022/05/12 05:05:49;;;;;;;6.65;3.65;;;15.60;99.90;;;;;;4932109;29;20051;-84
2022/05/12 05:08:20;;;;;;;9.40;4.75;;;15.60;99.90;;;;;;4933295;29;20027;-84
2022/05/12 05:10:47;;;;;;;9.50;4.45;;;15.60;99.90;;;;;;4931782;29;20047;-84
2022/05/12 05:13:13;;;;;;;9.85;3.85;;;15.70;99.90;;;;;;4933055;29;20105;-83
2022/05/12 05:15:39;;;;;;;9.55;3.97;;;15.70;99.90;;;;;;4933228;29;20482;-82
2022/05/12 05:18:05;;;;;;;12.15;4.15;;;15.70;99.90;;;;;;4933317;29;20476;-83
2022/05/12 05:20:31;;;;;;;7.43;3.00;;;15.70;99.90;;;;;;4932982;29;20032;-83
2022/05/12 05:22:57;;;;;;;7.13;2.60;;;15.70;99.90;;;;;;4933164;29;20071;-83
2022/05/12 05:25:23;;;;;;;11.48;4.95;;;15.70;99.90;;;;;;4933306;29;20055;-83
2022/05/12 05:27:51;;;;;;;10.23;4.20;;;15.70;99.90;;;;;;4931972;29;20124;-83
2022/05/12 05:30:21;;;;;;;11.52;2.88;;;15.70;99.90;;;;;;4931797;29;20059;-83
2022/05/12 05:32:47;;;;;;;7.07;2.72;;;15.70;99.90;;;;;;4933142;29;20415;-84
2022/05/12 05:35:14;;;;;;;7.95;2.58;;;15.80;99.90;;;;;;4933105;29;20032;-84
2022/05/12 05:37:42;;;;;;;11.43;3.42;;;15.80;99.90;;;;;;4933100;29;20056;-83
2022/05/12 05:40:09;;;;;;;9.32;3.63;;;15.80;99.60;;;;;;4935246;29;20027;-83
2022/05/12 05:42:35;;;;;;;11.18;3.25;;;15.80;99.50;;;;;;4919455;29;20043;-84
2022/05/12 05:45:10;;;;;;;9.38;3.05;;;15.80;99.60;;;;;;4935701;29;20083;-84
2022/05/12 05:47:35;;;;;;;8.43;2.78;;;15.80;99.80;;;;;;4936372;29;20028;-84
2022/05/12 05:50:01;;;;;;;9.60;3.38;;;15.80;99.70;;;;;;4936390;29;20039;-84
2022/05/12 05:55:11;;;;;;;7.85;3.13;;;15.90;99.80;;;;;;4936503;29;20031;-84
2022/05/12 05:57:38;;;;;;;8.95;3.20;;;15.90;99.90;;;;;;4936150;29;20373;-83
2022/05/12 06:00:06;;;;;;;9.20;3.50;;;15.90;99.60;;;;;;4936380;29;20042;-84
2022/05/12 06:02:33;;;;;;;9.43;3.67;;;15.90;99.60;;;;;;4935169;29;20040;-83
2022/05/12 06:04:59;;;;;;;8.77;3.38;;;15.90;99.70;;;;;;4935123;29;20823;-83
2022/05/12 06:07:25;;;;;;;13.98;3.70;;;15.90;99.60;;;;;;4935862;29;20042;-83
2022/05/12 06:09:51;;;;;;;8.80;3.25;;;15.90;99.70;;;;;;4936315;29;20027;-84
2022/05/12 06:12:17;;;;;;;9.63;3.35;;;16.00;99.50;;;;;;4935939;29;20028;-84
2022/05/12 06:14:42;;;;;;;11.48;3.58;;;16.00;99.20;;;;;;4985534;23;20061;-79
2022/05/12 06:17:08;;;;;;;13.68;4.80;;;16.00;99.30;;;;;;4993791;28;20034;-79
2022/05/12 06:19:35;;;;;;;13.88;4.80;;;16.00;99.40;;;;;;4993665;28;20022;-79
2022/05/12 06:22:01;;;;;;;11.98;3.45;;;16.00;99.30;;;;;;4993745;28;20034;-79
2022/05/12 06:24:27;;;;;;;12.02;4.40;;;16.10;99.50;;;;;;4993750;28;20030;-78
2022/05/12 06:26:53;;;;;;;11.73;4.80;;;16.10;99.40;;;;;;4993595;28;20031;-79
2022/05/12 06:29:20;;;;;;;11.80;4.75;;;16.10;99.70;;;;;;4993606;28;20488;-79
2022/05/12 06:31:47;;;;;;;14.02;4.63;;;16.10;99.90;;;;;;4992430;28;20038;-79
2022/05/12 06:34:13;;;;;;;14.93;5.70;;;16.00;99.90;;;;;;4993543;28;20035;-79
2022/05/12 06:36:39;;;;;;;14.68;5.53;;;16.00;99.90;;;;;;4992156;28;20506;-79
2022/05/12 06:39:05;;;;;;;15.13;5.63;;;16.00;99.90;;;;;;4993416;28;20023;-79
2022/05/12 06:41:32;;;;;;;17.30;5.90;;;16.10;99.90;;;;;;4993443;28;20026;-79
2022/05/12 06:43:58;;;;;;;16.90;7.13;;;16.10;99.90;;;;;;4992120;28;20038;-79
2022/05/12 06:46:25;;;;;;;19.30;8.50;;;16.20;99.90;;;;;;4991923;28;20031;-79
2022/05/12 06:48:52;;;;;;;13.77;6.28;;;16.30;99.90;;;;;;4991702;28;20041;-79
2022/05/12 06:51:18;;;;;;;13.13;6.28;;;16.30;99.90;;;;;;4991218;28;20038;-79
2022/05/12 06:53:45;;;;;;;16.05;6.30;;;16.40;99.90;;;;;;4993150;28;20479;-79
2022/05/12 06:56:12;;;;;;;13.82;6.63;;;16.40;99.90;;;;;;4991682;28;20030;-79
2022/05/12 06:58:39;;;;;;;19.30;6.90;;;16.50;99.90;;;;;;4991629;28;20034;-79
2022/05/12 07:01:06;;;;;;;14.95;6.18;;;16.50;99.90;;;;;;4993234;28;20452;-79
2022/05/12 07:03:32;;;;;;;14.63;7.05;;;16.50;99.90;;;;;;4992831;28;20403;-79
2022/05/12 07:05:58;;;;;;;17.20;6.47;;;16.50;99.90;;;;;;4992784;28;20049;-79
2022/05/12 07:08:26;;;;;;;12.05;6.10;;;16.50;99.90;;;;;;4991617;28;20030;-79
2022/05/12 07:10:52;;;;;;;14.75;7.22;;;16.50;99.90;;;;;;4991562;28;20387;-79
2022/05/12 07:13:21;;;;;;;9.43;5.57;;;16.60;99.90;;;;;;4992746;28;20030;-79
2022/05/12 07:15:49;;;;;;;14.80;6.45;;;16.60;99.40;;;;;;4991456;28;20495;-79
2022/05/12 07:18:16;;;;;;;16.48;7.05;;;16.60;99.80;;;;;;4992696;28;20402;-79
2022/05/12 07:28:55;;;;;;;17.83;10.20;;;16.80;99.90;;;;;;4992499;28;20034;-79
2022/05/12 07:31:22;;;;;;;19.30;9.18;;;16.90;99.80;;;;;;4991766;28;20045;-79
2022/05/12 07:33:49;;;;;;;15.50;8.68;;;17.00;99.80;;;;;;4992518;28;20030;-79
2022/05/12 07:36:25;;;;;;;12.73;8.10;;;17.00;99.40;;;;;;4990983;28;20026;-79
2022/05/12 07:38:51;;;;;;;16.02;8.07;;;17.00;99.40;;;;;;4992437;28;20022;-79
2022/05/12 07:41:18;;;;;;;11.82;7.78;;;17.00;99.20;;;;;;4992240;28;20046;-79
2022/05/12 07:43:45;;;;;;;15.10;7.72;;;16.90;99.70;;;;;;4992197;28;20034;-79
2022/05/12 07:46:13;;;;;;;14.43;8.25;;;16.90;99.60;;;;;;4992094;28;20125;-79
2022/05/12 07:48:40;;;;;;;14.55;8.07;;;16.80;99.50;;;;;;4991999;28;20132;-79
2022/05/12 07:51:06;;;;;;;13.93;7.63;;;16.90;99.60;;;;;;4990807;28;20410;-79
2022/05/12 07:53:32;;;;;;;14.52;6.85;;;16.90;99.50;;;;;;4992278;28;20027;-79
2022/05/12 07:55:59;;;;;;;12.70;7.43;;;16.90;98.80;;;;;;4991952;28;20038;-79
2022/05/12 07:58:25;;;;;;;12.93;6.20;;;17.00;98.70;;;;;;4992474;28;20029;-78
2022/05/12 08:00:53;;;;;;;12.07;6.32;;;17.00;98.70;;;;;;4991628;28;20038;-79
2022/05/12 08:03:19;;;;;;;10.55;5.60;;;17.00;98.60;;;;;;4991804;28;20105;-79
2022/05/12 08:05:45;;;;;;;10.95;5.82;;;17.10;98.20;;;;;;4991749;28;20486;-79
2022/05/12 08:08:11;;;;;;;10.82;6.20;;;17.10;98.30;;;;;;4991930;28;20058;-79
2022/05/12 08:10:37;;;;;;;12.82;5.93;;;17.20;98.20;;;;;;4991493;28;20038;-79
2022/05/12 08:13:04;;;;;;;11.90;6.55;;;17.20;97.70;;;;;;4991827;28;20448;-79
2022/05/12 08:15:31;;;;;;;13.93;7.45;;;17.20;97.70;;;;;;4991609;28;20034;-79
2022/05/12 08:17:57;;;;;;;9.68;5.60;;;17.20;97.20;;;;;;4991500;28;20035;-79
2022/05/12 08:20:23;;;;;;;14.10;7.82;;;17.20;97.50;;;;;;4991506;28;20033;-79
2022/05/12 08:22:49;;;;;;;13.73;6.97;;;17.20;97.80;;;;;;4991647;28;20109;-79
2022/05/12 08:25:16;;;;;;;9.57;6.15;;;17.20;97.50;;;;;;4990316;28;20463;-79
2022/05/12 08:27:42;;;;;;;11.88;6.65;;;17.20;97.50;;;;;;4990423;28;20038;-79
2022/05/12 08:30:11;;;;;;;11.45;6.65;;;17.30;97.70;;;;;;4990231;28;20033;-79
2022/05/12 08:32:37;;;;;;;11.00;5.97;;;17.40;97.30;;;;;;4991316;28;20108;-79
2022/05/12 08:35:03;;;;;;;13.82;6.18;;;17.40;96.40;;;;;;4991453;28;20086;-79
2022/05/12 08:37:29;;;;;;;10.15;6.25;;;17.40;96.30;;;;;;4991563;28;20035;-79
2022/05/12 08:39:56;;;;;;;11.45;5.75;;;17.30;96.40;;;;;;4991106;28;20475;-79
2022/05/12 08:42:43;;;;;;;9.30;6.20;;;17.30;96.10;;;;;;4991634;28;20576;-79
2022/05/12 08:45:13;;;;;;;11.73;6.47;;;17.40;96.40;;;;;;4991239;28;20038;-79
2022/05/12 08:47:44;;;;;;;10.73;5.85;;;17.40;95.90;;;;;;4990012;28;20030;-79
2022/05/12 08:50:19;;;;;;;10.30;6.40;;;17.40;95.60;;;;;;4991151;28;20502;-79
2022/05/12 08:52:57;;;;;;;9.05;5.13;;;17.40;94.70;;;;;;4991415;28;20057;-79
2022/05/12 08:55:30;;;;;;;11.87;6.63;;;17.50;95.10;;;;;;4991215;28;20044;-79
2022/05/12 08:58:22;;;;;;;11.13;6.10;;;17.50;95.10;;;;;;4991161;28;20525;-79
2022/05/12 09:00:59;;;;;;;13.93;6.60;;;17.50;95.00;;;;;;4991143;28;20039;-79
2022/05/12 09:04:12;;;;;;;10.00;4.95;;;17.60;94.70;;;;;;4991298;28;20050;-78
2022/05/12 09:06:54;;;;;;;10.55;5.55;;;17.50;93.40;;;;;;4987845;28;20038;-79
2022/05/12 09:09:36;;;;;;;12.70;6.00;;;17.50;93.20;;;;;;4991387;28;20383;-79
2022/05/12 09:12:39;;;;;;;16.05;6.53;;;17.50;93.30;;;;;;4991109;28;20093;-79
2022/05/12 09:15:11;;;;;;;10.20;6.00;;;17.50;93.60;;;;;;4994759;28;20088;-79
2022/05/12 09:18:04;;;;;;;11.18;7.00;;;17.60;93.80;;;;;;4994925;28;20085;-79
2022/05/12 09:20:33;;;;;;;10.82;6.60;;;17.70;94.00;;;;;;4994800;28;20034;-79
2022/05/12 09:23:01;;;;;;;10.27;6.45;;;17.70;92.90;;;;;;4994913;28;20113;-79
2022/05/12 09:25:40;;;;;;;12.93;7.15;;;17.60;92.90;;;;;;4994679;28;20030;-79
2022/05/12 09:28:33;;;;;;;12.40;6.97;;;17.60;93.80;;;;;;4995027;28;20084;-79
2022/05/12 09:31:19;;;;;;;12.55;6.63;;;17.50;93.90;;;;;;4993563;28;20038;-79
2022/05/12 09:33:48;;;;;;;12.63;6.88;;;17.50;93.80;;;;;;4993494;28;20034;-79
2022/05/12 09:36:24;;;;;;;12.60;7.18;;;17.50;93.90;;;;;;4993452;28;20026;-79
2022/05/12 09:38:54;;;;;;;11.25;6.35;;;17.50;94.00;;;;;;4993257;28;20037;-79
2022/05/12 09:41:42;;;;;;;10.00;4.97;;;17.60;93.60;;;;;;4994474;28;20038;-79
2022/05/12 09:44:20;;;;;;;7.22;4.50;;;17.70;92.50;;;;;;4993175;28;20037;-79
2022/05/12 09:46:56;;;;;;;11.17;6.30;;;17.70;91.70;;;;;;4994387;28;20034;-79
2022/05/12 09:49:23;;;;;;;9.73;6.22;;;17.70;92.40;;;;;;4993033;28;20277;-80
2022/05/12 09:51:49;;;;;;;12.85;6.63;;;17.70;92.80;;;;;;4992914;28;20085;-78
2022/05/12 09:54:28;;;;;;;8.40;4.50;;;17.70;93.00;;;;;;4994302;28;20085;-79
2022/05/12 09:57:10;;;;;;;8.27;3.85;;;17.70;92.10;;;;;;4994136;28;20023;-79
2022/05/12 09:59:37;;;;;;;9.07;3.97;;;17.70;92.00;;;;;;4994156;28;20030;-79
2022/05/12 10:02:07;;;;;;;7.63;3.75;;;17.70;92.10;;;;;;4994105;28;20073;-79
2022/05/12 10:10:24;;;;;;;7.35;4.63;;;17.90;91.90;;;;;;4994077;28;20023;-79
2022/05/12 10:13:11;;;;;;;7.85;4.00;;;17.90;91.70;;;;;;4994087;28;20036;-79
2022/05/12 10:15:39;;;;;;;8.45;3.30;;;17.90;90.70;;;;;;4993725;28;20035;-78
2022/05/12 10:18:44;;;;;;;5.72;2.50;;;18.00;89.50;;;;;;4994046;28;20034;-79
2022/05/12 10:21:37;;;;;;;6.47;2.03;;;18.00;85.90;;;;;;4994059;28;20413;-79
2022/05/12 10:24:15;;;;;;;4.05;2.10;;;18.10;82.30;;;;;;4993718;28;20034;-79
2022/05/12 10:26:56;;;;;;;5.28;2.65;;;18.20;82.80;;;;;;4993736;28;20030;-79
2022/05/12 10:29:54;;;;;;;6.57;2.83;;;18.20;84.20;;;;;;4993586;28;20112;-79
2022/05/12 10:32:44;;;;;;;5.22;2.40;;;18.30;84.70;;;;;;4993641;28;20130;-79
2022/05/12 10:35:23;;;;;;;4.78;1.95;;;18.40;83.70;;;;;;4992459;28;20501;-79
2022/05/12 10:38:08;;;;;;;9.43;3.05;;;18.50;79.00;;;;;;4993522;28;20022;-79
2022/05/12 10:40:45;;;;;;;4.82;2.10;;;18.50;78.30;;;;;;4993436;28;20421;-79
2022/05/12 10:43:19;;;;;;;7.70;2.60;;;18.50;78.90;;;;;;4993443;28;20085;-79
2022/05/12 10:46:04;;;;;;;10.70;3.08;;;18.40;80.40;;;;;;4993216;28;20050;-79
2022/05/12 10:48:52;;;;;;;6.75;3.35;;;18.50;82.90;;;;;;4993434;28;20041;-79
2022/05/12 10:51:38;;;;;;;6.60;3.45;;;18.50;83.80;;;;;;4993398;28;20030;-79
2022/05/12 10:54:42;;;;;;;6.97;3.35;;;18.50;80.30;;;;;;4993264;28;20092;-79
2022/05/12 10:57:35;;;;;;;6.68;3.28;;;18.60;81.50;;;;;;4993032;28;20027;-79
2022/05/12 11:00:08;;;;;;;6.40;4.07;;;18.60;83.50;;;;;;4993402;28;20482;-80
2022/05/12 11:02:47;;;;;;;4.93;2.80;;;18.60;82.80;;;;;;4993144;28;20092;-80
2022/05/12 11:05:30;;;;;;;5.70;2.40;;;18.70;81.30;;;;;;4993243;28;20034;-79
2022/05/12 11:08:09;;;;;;;5.25;2.30;;;18.70;78.50;;;;;;4993076;28;20042;-79
2022/05/12 11:10:55;;;;;;;6.43;2.20;;;18.80;78.00;;;;;;4992671;28;20511;-79
2022/05/12 11:13:34;;;;;;;5.45;2.55;;;18.80;77.90;;;;;;4993026;28;20037;-79
2022/05/12 11:16:07;;;;;;;5.22;2.30;;;18.80;78.50;;;;;;4992775;28;20030;-79
2022/05/12 11:18:51;;;;;;;4.30;2.30;;;18.80;79.10;;;;;;4992680;28;20519;-79
2022/05/12 11:21:23;;;;;;;7.30;2.60;;;18.80;80.90;;;;;;4992656;28;20478;-79
2022/05/12 11:23:55;;;;;;;7.00;2.50;;;18.90;79.70;;;;;;4992864;28;20034;-79
2022/05/12 11:26:48;;;;;;;4.32;2.20;;;18.90;77.90;;;;;;4992729;28;20030;-78
2022/05/12 11:29:41;;;;;;;4.72;1.98;;;18.90;76.50;;;;;;4992664;28;20510;-79
2022/05/12 11:32:48;;;;;;;5.20;2.30;;;19.00;77.50;;;;;;4991557;28;20069;-79
2022/05/12 11:35:22;;;;;;;7.10;2.10;;;19.00;77.00;;;;;;4992270;28;20497;-79
2022/05/12 11:37:50;;;;;;;4.85;2.03;;;19.10;73.50;;;;;;4992170;28;20314;-79
2022/05/12 11:40:41;;;;;;;5.18;1.73;;;19.20;73.10;;;;;;4992252;28;20391;-79
2022/05/12 11:46:23;;;;;;;4.30;2.35;;;19.30;70.60;;;;;;4992621;28;20038;-79
2022/05/12 11:49:01;;;;;;;6.78;2.25;;;19.30;71.40;;;;;;4992047;28;20030;-79
2022/05/12 11:51:27;;;;;;;6.68;2.05;;;19.20;72.40;;;;;;4992216;28;20501;-79
2022/05/12 11:54:31;;;;;;;9.07;2.60;;;19.20;74.00;;;;;;4990902;28;20030;-79
2022/05/12 11:56:58;;;;;;;7.13;2.70;;;19.20;75.00;;;;;;4991871;28;20030;-79
2022/05/12 11:59:28;;;;;;;14.35;7.70;;;19.20;75.40;;;;;;4991730;28;20121;-79
2022/05/12 12:02:02;;;;;;;5.95;3.10;;;19.30;74.80;;;;;;4991979;28;20052;-79
2022/05/12 12:04:37;;;;;;;5.38;2.42;;;19.30;75.40;;;;;;4991930;28;20038;-79
2022/05/12 12:07:04;;;;;;;6.47;2.55;;;19.20;76.60;;;;;;4991702;28;20026;-79
2022/05/12 12:09:36;;;;;;;6.00;2.40;;;19.30;75.40;;;;;;4992054;28;20108;-79
2022/05/12 12:12:11;;;;;;;7.10;2.20;;;19.40;75.70;;;;;;4991688;28;20030;-79
2022/05/12 12:14:43;;;;;;;6.25;2.28;;;19.40;76.10;;;;;;5030125;23;20046;-83
2022/05/12 12:17:28;;;;;;;6.20;2.50;;;19.50;75.60;;;;;;4990624;28;20093;-84
2022/05/12 12:19:56;;;;;;;5.35;2.17;;;19.50;76.00;;;;;;4991585;28;20034;-84
2022/05/12 12:22:35;;;;;;;6.05;1.90;;;19.60;74.50;;;;;;4990412;28;20475;-84
2022/05/12 12:25:19;;;;;;;5.47;2.17;;;19.60;72.80;;;;;;4991699;28;20026;-84
2022/05/12 12:27:57;;;;;;;6.25;3.30;;;19.60;72.90;;;;;;4991404;28;20026;-84
2022/05/12 12:30:31;;;;;;;5.57;2.22;;;19.60;74.20;;;;;;4991413;28;20057;-84
2022/05/12 12:33:25;;;;;;;6.32;2.88;;;19.60;75.50;;;;;;4991451;28;20027;-84
2022/05/12 12:36:02;;;;;;;5.15;2.05;;;19.70;73.70;;;;;;4991202;28;20038;-84
2022/05/12 12:38:46;;;;;;;6.07;2.40;;;19.80;73.80;;;;;;4991434;28;20091;-84
2022/05/12 12:41:41;;;;;;;5.38;2.20;;;19.80;73.80;;;;;;4991392;28;20115;-84
2022/05/12 12:44:18;;;;;;;7.35;2.38;;;19.90;73.10;;;;;;4989351;28;20046;-84
2022/05/12 12:47:19;;;;;;;7.72;2.75;;;19.90;73.70;;;;;;4991240;28;20035;-84
2022/05/12 18:54:58;;;;;;;6.00;2.70;;;19.20;70.40;;;;;;4992980;28;20113;-69
2022/05/12 18:57:24;;;;;;;10.50;3.20;;;19.10;70.70;;;;;;4992646;28;20677;-68
2022/05/12 18:59:52;;;;;;;8.68;4.82;;;19.10;70.40;;;;;;4993504;28;20026;-68
2022/05/12 19:02:20;;;;;;;7.40;3.38;;;19.10;70.60;;;;;;4993600;28;20054;-68
2022/05/12 19:04:46;;;;;;;8.00;3.10;;;19.10;70.90;;;;;;4993625;28;20045;-68
2022/05/12 19:07:19;;;;;;;9.27;5.53;;;19.00;71.20;;;;;;4993381;28;20022;-68
2022/05/12 19:09:50;;;;;;;8.40;4.28;;;19.00;71.40;;;;;;4993393;28;20480;-68
2022/05/12 19:12:27;;;;;;;8.65;4.38;;;18.90;71.60;;;;;;4993226;28;20173;-68
2022/05/12 19:15:01;;;;;;;7.47;2.60;;;18.90;72.00;;;;;;4991979;28;20033;-68
2022/05/12 19:17:29;;;;;;;6.82;3.00;;;18.90;72.50;;;;;;4993015;28;20038;-68
2022/05/12 19:19:55;;;;;;;8.35;3.22;;;18.80;72.50;;;;;;4992992;28;20018;-68
2022/05/12 19:22:22;;;;;;;6.20;3.33;;;18.80;72.80;;;;;;4993044;28;20491;-68
2022/05/12 19:24:48;;;;;;;6.15;3.20;;;18.70;73.00;;;;;;4992939;28;20045;-68
2022/05/12 19:27:15;;;;;;;7.45;2.70;;;18.70;73.40;;;;;;4992778;28;20030;-68
2022/05/12 19:29:42;;;;;;;7.25;2.90;;;18.70;73.70;;;;;;4992899;28;20169;-68
2022/05/12 19:32:09;;;;;;;6.93;2.60;;;18.60;74.10;;;;;;4992983;28;20468;-69